createdAt,value
2022-08-18T00:02:14.537Z,100.00
2022-08-18T00:05:31.552Z,100.00
2022-08-18T00:08:48.193Z,100.00
2022-08-18T00:12:04.865Z,100.00
2022-08-18T00:15:24.861Z,100.00
2022-08-18T00:18:40.962Z,100.00
2022-08-18T00:21:57.195Z,100.00
2022-08-18T00:25:18.352Z,100.00
2022-08-18T00:28:34.956Z,100.00
2022-08-18T00:31:51.226Z,100.00
2022-08-18T00:35:19.266Z,100.00
2022-08-18T00:38:35.718Z,100.00
2022-08-18T00:41:52.099Z,100.00
2022-08-18T00:45:11.704Z,100.00
2022-08-18T00:48:28.536Z,100.00
2022-08-18T00:51:51.444Z,100.00
2022-08-18T00:55:09.418Z,100.00
2022-08-18T00:58:30.883Z,100.00
2022-08-18T01:01:49.274Z,100.00
2022-08-18T01:05:09.956Z,100.00
2022-08-18T01:08:29.201Z,100.00
2022-08-18T01:11:46.464Z,100.00
2022-08-18T01:15:04.124Z,100.00
2022-08-18T01:18:36.409Z,100.00
2022-08-18T01:21:57.185Z,100.00
2022-08-18T01:25:29.438Z,100.00
2022-08-18T01:28:50.284Z,100.00
2022-08-18T01:32:06.719Z,100.00
2022-08-18T01:35:26.362Z,100.00
2022-08-18T01:38:43.817Z,100.00
2022-08-18T01:42:00.252Z,100.00
2022-08-18T01:45:19.578Z,100.00
2022-08-18T01:48:37.804Z,100.00
2022-08-18T01:51:55.704Z,100.00
2022-08-18T01:55:14.752Z,100.00
2022-08-18T01:58:33.638Z,100.00
2022-08-18T02:01:54.913Z,100.00
2022-08-18T02:05:16.805Z,100.00
2022-08-18T02:08:33.437Z,100.00
2022-08-18T02:11:49.674Z,100.00
2022-08-18T02:15:08.711Z,100.00
2022-08-18T02:18:47.638Z,100.00
2022-08-18T02:21:46.768Z,100.00
2022-08-18T02:25:04.388Z,100.00
2022-08-18T02:28:25.256Z,100.00
2022-08-18T02:31:41.230Z,100.00
2022-08-18T02:34:57.419Z,100.00
2022-08-18T02:38:15.728Z,100.00
2022-08-18T02:41:34.669Z,100.00
2022-08-18T02:44:53.335Z,100.00
2022-08-18T02:48:09.850Z,100.00
2022-08-18T02:51:28.366Z,100.00
2022-08-18T02:54:44.702Z,100.00
2022-08-18T02:58:02.654Z,100.00
2022-08-18T03:01:18.958Z,100.00
2022-08-18T03:04:38.940Z,100.00
2022-08-18T03:07:56.275Z,100.00
2022-08-18T03:11:12.660Z,100.00
2022-08-18T03:14:28.940Z,100.00
2022-08-18T03:17:46.878Z,100.00
2022-08-18T03:21:03.963Z,100.00
2022-08-18T03:24:24.249Z,100.00
2022-08-18T03:27:41.800Z,100.00
2022-08-18T03:30:57.990Z,100.00
2022-08-18T03:34:17.006Z,100.00
2022-08-18T03:37:31.052Z,100.00
2022-08-18T03:40:48.277Z,100.00
2022-08-18T03:44:04.752Z,100.00
2022-08-18T03:47:22.576Z,100.00
2022-08-18T03:50:40.593Z,100.00
2022-08-18T03:53:58.418Z,100.00
2022-08-18T04:00:50.671Z,100.00
2022-08-18T04:04:12.227Z,100.00
2022-08-18T04:07:28.413Z,100.00
2022-08-18T04:10:44.932Z,100.00
2022-08-18T04:14:02.540Z,100.00
2022-08-18T04:17:22.476Z,100.00
2022-08-18T04:20:59.344Z,100.00
2022-08-18T04:24:00.794Z,100.00
2022-08-18T04:27:16.902Z,100.00
2022-08-18T04:30:33.316Z,100.00
2022-08-18T04:33:50.262Z,100.00
2022-08-18T04:37:07.564Z,100.00
2022-08-18T04:40:25.341Z,100.00
2022-08-18T04:43:42.952Z,100.00
2022-08-18T04:47:01.269Z,100.00
2022-08-18T04:50:18.801Z,100.00
2022-08-18T04:53:53.259Z,100.00
2022-08-18T04:57:14.584Z,100.00
2022-08-18T05:00:30.617Z,100.00
2022-08-18T05:03:50.002Z,100.00
2022-08-18T05:07:05.738Z,100.00
2022-08-18T05:10:25.868Z,100.00
2022-08-18T05:13:42.392Z,100.00
2022-08-18T05:16:59.158Z,100.00
2022-08-18T05:20:18.170Z,100.00
2022-08-18T05:23:35.137Z,100.00
2022-08-18T05:26:54.612Z,100.00
2022-08-18T05:30:12.881Z,100.00
2022-08-18T05:33:29.253Z,100.00
2022-08-18T05:37:20.603Z,100.00
2022-08-18T05:40:37.189Z,100.00
2022-08-18T05:43:55.647Z,100.00
2022-08-18T05:47:17.765Z,100.00
2022-08-18T05:50:35.665Z,100.00
2022-08-18T05:54:06.652Z,100.00
2022-08-18T05:57:26.689Z,100.00
2022-08-18T06:00:43.803Z,100.00
2022-08-18T06:04:06.701Z,100.00
2022-08-18T06:07:33.460Z,100.00
2022-08-18T06:10:52.198Z,100.00
2022-08-18T06:14:08.599Z,100.00
2022-08-18T06:17:40.208Z,100.00
2022-08-18T06:21:38.297Z,100.00
2022-08-18T06:24:57.767Z,100.00
2022-08-18T06:28:18.706Z,100.00
2022-08-18T06:31:43.268Z,100.00
2022-08-18T06:35:12.047Z,100.00
2022-08-18T06:38:46.179Z,100.00
2022-08-18T06:42:06.369Z,100.00
2022-08-18T06:45:25.271Z,100.00
2022-08-18T06:48:49.627Z,100.00
2022-08-18T06:52:05.960Z,100.00
2022-08-18T06:55:27.402Z,100.00
2022-08-18T06:58:43.553Z,100.00
2022-08-18T07:02:02.802Z,100.00
2022-08-18T07:05:35.158Z,100.00
2022-08-18T07:08:53.597Z,100.00
2022-08-18T07:12:14.586Z,100.00
2022-08-18T07:15:35.236Z,100.00
2022-08-18T07:18:52.208Z,100.00
2022-08-18T07:22:17.192Z,100.00
2022-08-18T07:25:37.732Z,100.00
2022-08-18T07:28:56.699Z,100.00
2022-08-18T07:32:21.473Z,100.00
2022-08-18T07:35:44.787Z,100.00
2022-08-18T07:39:06.405Z,100.00
2022-08-18T07:42:33.160Z,100.00
2022-08-18T07:45:49.732Z,100.00
2022-08-18T07:49:07.287Z,100.00
2022-08-18T07:52:36.519Z,100.00
2022-08-18T07:55:53.117Z,100.00
2022-08-18T07:59:15.255Z,99.84
2022-08-18T08:02:50.070Z,96.88
2022-08-18T08:06:13.749Z,97.13
2022-08-18T08:09:47.163Z,94.61
2022-08-18T08:13:09.663Z,92.14
2022-08-18T08:16:33.923Z,88.96
2022-08-18T08:20:20.597Z,87.37
2022-08-18T08:23:45.218Z,85.97
2022-08-18T08:27:05.856Z,84.07
2022-08-18T08:30:26.213Z,83.27
2022-08-18T08:33:49.472Z,82.91
2022-08-18T08:37:11.362Z,82.66
2022-08-18T08:40:32.039Z,80.25
2022-08-18T08:43:53.311Z,78.98
2022-08-18T08:47:13.838Z,74.05
2022-08-18T08:50:37.433Z,72.52
2022-08-18T08:53:59.180Z,71.24
2022-08-18T08:57:18.022Z,70.57
2022-08-18T09:04:14.081Z,68.35
2022-08-18T09:07:42.818Z,68.22
2022-08-18T09:11:24.388Z,69.88
2022-08-18T09:15:07.031Z,66.98
2022-08-18T09:18:56.713Z,67.64
2022-08-18T09:22:18.173Z,66.25
2022-08-18T09:25:59.438Z,64.73
2022-08-18T09:29:30.445Z,63.26
2022-08-18T09:33:18.852Z,65.77
2022-08-18T09:36:41.972Z,64.66
2022-08-18T09:40:33.378Z,64.37
2022-08-18T09:43:44.611Z,63.66
2022-08-18T09:47:09.056Z,64.98
2022-08-18T09:51:28.488Z,63.99
2022-08-18T09:54:57.387Z,64.30
2022-08-18T09:58:50.233Z,63.86
2022-08-18T10:02:14.216Z,65.33
2022-08-18T10:05:39.305Z,62.80
2022-08-18T10:09:36.704Z,64.10
2022-08-18T10:13:17.153Z,61.99
2022-08-18T10:17:13.097Z,61.50
2022-08-18T10:20:08.204Z,64.19
2022-08-18T10:24:14.711Z,60.68
2022-08-18T10:27:34.426Z,60.22
2022-08-18T10:31:12.307Z,60.57
2022-08-18T10:34:52.278Z,60.54
2022-08-18T10:38:05.677Z,59.21
2022-08-18T10:41:32.266Z,57.75
2022-08-18T10:44:53.078Z,60.15
2022-08-18T10:48:18.581Z,59.91
2022-08-18T10:52:00.431Z,59.60
2022-08-18T10:55:49.162Z,61.63
2022-08-18T10:59:16.550Z,62.64
2022-08-18T11:02:45.071Z,62.64
2022-08-18T11:06:21.219Z,60.65
2022-08-18T11:09:41.906Z,58.43
2022-08-18T11:13:13.828Z,58.73
2022-08-18T11:16:42.573Z,59.73
2022-08-18T11:20:03.229Z,58.89
2022-08-18T11:23:25.929Z,61.19
2022-08-18T11:26:52.351Z,59.22
2022-08-18T11:30:12.136Z,60.26
2022-08-18T11:33:30.714Z,60.65
2022-08-18T11:36:50.118Z,60.67
2022-08-18T11:40:17.700Z,60.50
2022-08-18T11:46:56.819Z,60.78
2022-08-18T11:50:20.521Z,61.91
2022-08-18T11:53:55.584Z,60.39
2022-08-18T11:57:46.208Z,60.46
2022-08-18T12:01:08.950Z,59.53
2022-08-18T12:04:35.720Z,58.94
2022-08-18T12:11:27.644Z,59.88
2022-08-18T12:15:13.837Z,60.12
2022-08-18T12:18:28.606Z,60.87
2022-08-18T12:21:40.312Z,60.94
2022-08-18T12:25:01.023Z,60.55
2022-08-18T12:28:17.391Z,61.06
2022-08-18T12:31:47.487Z,60.57
2022-08-18T12:34:51.712Z,60.30
2022-08-18T12:38:12.987Z,61.90
2022-08-18T12:41:26.497Z,62.61
2022-08-18T12:44:43.045Z,61.87
2022-08-18T12:48:00.376Z,62.38
2022-08-18T12:51:18.000Z,62.34
2022-08-18T12:54:36.875Z,62.25
2022-08-18T12:57:55.169Z,62.29
2022-08-18T13:01:11.390Z,63.23
2022-08-18T13:04:27.785Z,63.29
2022-08-18T13:07:44.164Z,62.44
2022-08-18T13:11:14.810Z,63.63
2022-08-18T13:14:20.814Z,62.82
2022-08-18T13:17:41.531Z,64.92
2022-08-18T13:20:59.410Z,65.84
2022-08-18T13:24:16.487Z,62.31
2022-08-18T13:27:35.936Z,62.38
2022-08-18T13:30:54.232Z,63.87
2022-08-18T13:34:15.335Z,65.84
2022-08-18T13:37:32.857Z,63.92
2022-08-18T13:40:49.768Z,61.99
2022-08-18T13:44:05.976Z,62.74
2022-08-18T13:47:24.233Z,63.62
2022-08-18T13:50:41.753Z,62.58
2022-08-18T13:54:17.843Z,62.58
2022-08-18T13:57:17.478Z,62.30
2022-08-18T14:00:35.466Z,62.60
2022-08-18T14:03:52.571Z,62.07
2022-08-18T14:07:11.117Z,63.01
2022-08-18T14:10:28.975Z,63.09
2022-08-18T14:13:45.239Z,62.90
2022-08-18T14:17:01.322Z,63.96
2022-08-18T14:20:34.587Z,63.80
2022-08-18T14:24:00.951Z,63.67
2022-08-18T14:27:17.645Z,62.94
2022-08-18T14:30:34.248Z,63.38
2022-08-18T14:33:53.704Z,62.41
2022-08-18T14:37:10.746Z,63.22
2022-08-18T14:40:28.404Z,63.35
2022-08-18T14:44:10.933Z,64.03
2022-08-18T14:47:04.060Z,63.56
2022-08-18T14:50:21.422Z,63.93
2022-08-18T14:53:41.858Z,64.36
2022-08-18T14:56:59.521Z,63.87
2022-08-18T15:00:22.674Z,65.35
2022-08-18T15:03:41.187Z,63.85
2022-08-18T15:06:58.387Z,64.30
2022-08-18T15:10:19.919Z,63.68
2022-08-18T15:13:39.043Z,63.24
2022-08-18T15:16:55.161Z,63.98
2022-08-18T15:20:14.777Z,63.67
2022-08-18T15:23:46.634Z,63.44
2022-08-18T15:27:10.232Z,62.84
2022-08-18T15:30:26.503Z,63.46
2022-08-18T15:33:43.148Z,63.80
2022-08-18T15:37:03.026Z,64.45
2022-08-18T15:40:31.169Z,64.93
2022-08-18T15:43:46.276Z,65.14
2022-08-18T15:47:03.059Z,65.48
2022-08-18T15:50:25.208Z,65.28
2022-08-18T15:53:40.090Z,64.83
2022-08-18T15:56:58.370Z,64.39
2022-08-18T16:00:21.153Z,64.73
2022-08-18T16:03:39.186Z,65.27
2022-08-18T16:06:56.901Z,65.21
2022-08-18T16:10:15.887Z,65.36
2022-08-18T16:13:33.582Z,65.46
2022-08-18T16:16:49.852Z,65.81
2022-08-18T16:20:06.027Z,65.47
2022-08-18T16:23:22.904Z,65.65
2022-08-18T16:26:39.294Z,66.23
2022-08-18T16:29:55.326Z,66.54
2022-08-18T16:33:14.208Z,67.30
2022-08-18T16:36:34.179Z,67.15
2022-08-18T16:39:50.558Z,68.07
2022-08-18T16:43:07.564Z,68.56
2022-08-18T16:46:28.433Z,69.25
2022-08-18T16:49:45.335Z,69.70
2022-08-18T16:53:02.901Z,70.43
2022-08-18T16:56:25.661Z,69.90
2022-08-18T16:59:56.195Z,69.98
2022-08-18T17:03:33.628Z,70.22
2022-08-18T17:06:50.565Z,70.55
2022-08-18T17:10:13.014Z,70.57
2022-08-18T17:13:36.083Z,71.27
2022-08-18T17:17:04.976Z,71.20
2022-08-18T17:20:25.662Z,71.56
2022-08-18T17:23:48.867Z,72.09
2022-08-18T17:27:26.486Z,72.37
2022-08-18T17:30:41.275Z,73.23
2022-08-18T17:34:00.744Z,73.42
2022-08-18T17:37:24.804Z,73.73
2022-08-18T17:40:46.452Z,74.12
2022-08-18T17:44:08.894Z,74.76
2022-08-18T17:47:33.379Z,75.12
2022-08-18T17:51:17.720Z,75.78
2022-08-18T17:54:43.017Z,76.10
2022-08-18T17:58:05.286Z,76.66
2022-08-18T18:01:23.033Z,77.11
2022-08-18T18:04:38.741Z,77.53
2022-08-18T18:08:07.272Z,77.97
2022-08-18T18:11:25.457Z,78.46
2022-08-18T18:14:44.816Z,79.02
2022-08-18T18:18:02.507Z,79.11
2022-08-18T18:22:00.556Z,79.49
2022-08-18T18:28:04.361Z,80.25
2022-08-18T18:31:35.333Z,85.53
2022-08-18T18:34:59.851Z,89.98
2022-08-18T18:38:30.577Z,92.11
2022-08-18T18:41:51.764Z,90.28
2022-08-18T18:45:14.636Z,89.44
2022-08-18T18:48:51.169Z,92.76
2022-08-18T18:51:57.579Z,93.96
2022-08-18T18:55:21.629Z,89.44
2022-08-18T18:58:47.022Z,88.20
2022-08-18T19:02:32.877Z,87.53
2022-08-18T19:05:35.914Z,87.51
2022-08-18T19:09:03.506Z,86.00
2022-08-18T19:12:37.153Z,86.26
2022-08-18T19:16:02.308Z,85.40
2022-08-18T19:19:38.465Z,84.96
2022-08-18T19:22:54.993Z,85.40
2022-08-18T19:26:15.543Z,86.78
2022-08-18T19:29:42.341Z,86.82
2022-08-18T19:33:12.854Z,86.71
2022-08-18T19:36:37.779Z,88.92
2022-08-18T19:40:00.739Z,90.41
2022-08-18T19:43:26.126Z,91.09
2022-08-18T19:46:47.740Z,92.25
2022-08-18T19:50:11.239Z,93.00
2022-08-18T19:53:50.528Z,94.44
2022-08-18T19:57:32.498Z,95.47
2022-08-18T20:00:54.629Z,96.48
2022-08-18T20:04:27.974Z,97.31
2022-08-18T20:08:48.525Z,98.42
2022-08-18T20:12:18.267Z,99.38
2022-08-18T20:15:37.288Z,100.00
2022-08-18T20:18:57.211Z,100.00
2022-08-18T20:22:22.090Z,100.00
2022-08-18T20:25:52.346Z,100.00
2022-08-18T20:29:10.334Z,100.00
2022-08-18T20:32:36.925Z,100.00
2022-08-18T20:36:08.794Z,100.00
2022-08-18T20:39:56.503Z,100.00
2022-08-18T20:43:13.378Z,100.00
2022-08-18T20:46:41.374Z,100.00
2022-08-18T20:50:11.609Z,100.00
2022-08-18T20:54:01.483Z,100.00
2022-08-18T20:57:20.649Z,100.00
2022-08-18T21:00:37.619Z,100.00
2022-08-18T21:03:55.598Z,100.00
2022-08-18T21:07:14.298Z,100.00
2022-08-18T21:10:32.943Z,100.00
2022-08-18T21:13:57.282Z,100.00
2022-08-18T21:17:24.049Z,100.00
2022-08-18T21:20:41.287Z,100.00
2022-08-18T21:24:01.865Z,100.00
2022-08-18T21:27:24.510Z,100.00
2022-08-18T21:30:41.162Z,100.00
2022-08-18T21:34:04.776Z,100.00
2022-08-18T21:37:24.981Z,100.00
2022-08-18T21:40:48.316Z,100.00
2022-08-18T21:44:09.325Z,100.00
2022-08-18T21:47:29.943Z,100.00
2022-08-18T21:50:54.264Z,100.00
2022-08-18T21:54:10.766Z,100.00
2022-08-18T21:57:33.888Z,100.00
2022-08-18T22:00:52.541Z,100.00
2022-08-18T22:04:13.099Z,100.00
2022-08-18T22:07:34.983Z,100.00
2022-08-18T22:11:03.247Z,100.00
2022-08-18T22:14:53.755Z,100.00
2022-08-18T22:18:06.229Z,100.00
2022-08-18T22:21:46.264Z,100.00
2022-08-18T22:25:09.931Z,100.00
2022-08-18T22:28:32.381Z,100.00
2022-08-18T22:31:52.762Z,100.00
2022-08-18T22:35:10.109Z,100.00
2022-08-18T22:38:26.262Z,100.00
2022-08-18T22:41:42.714Z,100.00
2022-08-18T22:45:04.586Z,100.00
2022-08-18T22:48:16.929Z,100.00
2022-08-18T22:51:37.724Z,100.00
2022-08-18T22:54:55.618Z,100.00
2022-08-18T22:58:14.960Z,100.00
2022-08-18T23:01:33.366Z,100.00
2022-08-18T23:04:50.020Z,100.00
2022-08-18T23:08:06.195Z,100.00
2022-08-18T23:11:22.524Z,100.00
2022-08-18T23:14:42.377Z,100.00
2022-08-18T23:17:59.027Z,100.00
2022-08-18T23:21:33.574Z,100.00
2022-08-18T23:24:34.047Z,100.00
2022-08-18T23:27:53.587Z,100.00
2022-08-18T23:31:09.805Z,100.00
2022-08-18T23:34:29.708Z,100.00
2022-08-18T23:37:50.090Z,100.00
2022-08-18T23:41:06.395Z,100.00
2022-08-18T23:44:23.844Z,100.00
2022-08-18T23:47:39.120Z,100.00
2022-08-18T23:51:00.814Z,100.00
2022-08-18T23:54:21.206Z,100.00
2022-08-18T23:57:37.322Z,100.00
